createdAt,value
2018-10-06T00:00:26.764Z,9.27
2018-10-06T00:02:55.509Z,11.83
2018-10-06T00:05:24.497Z,11.27
2018-10-06T00:07:53.592Z,11.67
2018-10-06T00:10:22.613Z,27.07
2018-10-06T00:12:52.271Z,15.30
2018-10-06T00:15:21.441Z,11.00
2018-10-06T00:17:50.800Z,15.33
2018-10-06T00:20:19.685Z,14.20
2018-10-06T00:22:48.465Z,11.80
2018-10-06T00:25:17.560Z,11.67
2018-10-06T00:27:46.394Z,19.63
2018-10-06T00:30:16.371Z,10.53
2018-10-06T00:32:46.472Z,13.70
2018-10-06T00:35:16.502Z,10.20
2018-10-06T00:37:46.678Z,11.00
2018-10-06T00:40:17.929Z,19.83
2018-10-06T00:42:48.146Z,10.30
2018-10-06T00:45:18.181Z,11.57
2018-10-06T00:47:48.312Z,12.63
2018-10-06T00:50:17.151Z,14.00
2018-10-06T00:52:46.253Z,9.80
2018-10-06T00:55:15.057Z,14.80
2018-10-06T00:57:44.142Z,14.07
2018-10-06T01:00:13.499Z,13.53
2018-10-06T01:02:42.392Z,17.40
2018-10-06T01:05:11.563Z,11.40
2018-10-06T01:07:40.698Z,9.63
2018-10-06T01:10:09.582Z,23.23
2018-10-06T01:12:38.694Z,12.53
2018-10-06T01:15:07.744Z,17.03
2018-10-06T01:17:36.559Z,14.90
2018-10-06T01:20:05.932Z,22.03
2018-10-06T01:22:34.743Z,14.53
2018-10-06T01:25:03.547Z,14.00
2018-10-06T01:27:32.626Z,18.13
2018-10-06T01:30:01.483Z,13.63
2018-10-06T01:32:30.316Z,14.23
2018-10-06T01:34:59.508Z,11.77
2018-10-06T01:37:28.351Z,20.93
2018-10-06T01:39:57.117Z,12.27
2018-10-06T01:42:26.058Z,12.07
2018-10-06T01:44:54.991Z,12.20
2018-10-06T01:47:24.509Z,27.67
2018-10-06T01:49:53.418Z,22.80
2018-10-06T01:52:23.305Z,9.97
2018-10-06T01:54:52.152Z,22.60
2018-10-06T01:57:21.010Z,12.83
2018-10-06T01:59:49.803Z,9.63
2018-10-06T02:02:18.949Z,9.30
2018-10-06T02:04:47.776Z,19.17
2018-10-06T02:07:16.765Z,9.30
2018-10-06T02:09:45.843Z,19.37
2018-10-06T02:12:14.935Z,12.00
2018-10-06T02:14:44.015Z,8.80
2018-10-06T02:17:12.776Z,13.00
2018-10-06T02:19:41.851Z,10.43
2018-10-06T02:22:10.666Z,12.03
2018-10-06T02:24:39.402Z,12.10
2018-10-06T02:27:08.214Z,11.30
2018-10-06T02:29:37.234Z,9.73
2018-10-06T02:32:06.290Z,12.03
2018-10-06T02:34:35.138Z,19.57
2018-10-06T02:37:03.941Z,11.80
2018-10-06T02:39:33.264Z,13.40
2018-10-06T02:42:02.792Z,11.20
2018-10-06T02:44:31.592Z,10.13
2018-10-06T02:47:00.403Z,16.90
2018-10-06T02:49:29.217Z,13.77
2018-10-06T02:51:58.407Z,11.97
2018-10-06T02:54:27.450Z,15.73
2018-10-06T02:56:56.596Z,7.67
2018-10-06T02:59:25.983Z,19.40
2018-10-06T03:01:55.159Z,13.13
2018-10-06T03:04:24.573Z,11.03
2018-10-06T03:06:53.373Z,7.93
2018-10-06T03:09:22.140Z,11.37
2018-10-06T03:11:51.043Z,15.30
2018-10-06T03:14:20.556Z,17.53
2018-10-06T03:16:49.352Z,12.67
2018-10-06T03:19:18.184Z,13.13
2018-10-06T03:21:47.037Z,11.20
2018-10-06T03:24:16.240Z,10.77
2018-10-06T03:26:45.217Z,11.30
2018-10-06T03:29:14.256Z,9.47
2018-10-06T03:31:43.730Z,7.27
2018-10-06T03:34:12.788Z,11.33
2018-10-06T03:36:41.990Z,10.43
2018-10-06T03:39:10.772Z,10.30
2018-10-06T03:41:40.225Z,17.77
2018-10-06T03:44:09.040Z,7.63
2018-10-06T03:46:38.208Z,11.00
2018-10-06T03:49:07.599Z,10.43
2018-10-06T03:51:37.136Z,9.57
2018-10-06T03:54:06.431Z,13.87
2018-10-06T03:56:35.527Z,7.43
2018-10-06T03:59:04.391Z,17.50
2018-10-06T04:01:33.155Z,14.40
2018-10-06T04:04:02.583Z,10.70
2018-10-06T04:06:31.415Z,9.17
2018-10-06T04:09:00.782Z,8.30
2018-10-06T04:11:30.858Z,10.20
2018-10-06T04:13:59.880Z,8.63
2018-10-06T04:16:28.675Z,9.90
2018-10-06T04:18:57.856Z,17.13
2018-10-06T04:21:30.001Z,14.07
2018-10-06T04:23:59.026Z,13.70
2018-10-06T04:26:27.817Z,15.43
2018-10-06T04:28:56.584Z,11.27
2018-10-06T04:31:25.350Z,15.07
2018-10-06T04:33:54.173Z,27.37
2018-10-06T04:36:23.026Z,16.70
2018-10-06T04:38:52.048Z,18.33
2018-10-06T04:41:20.883Z,14.20
2018-10-06T04:43:49.670Z,16.47
2018-10-06T04:46:18.482Z,18.27
2018-10-06T04:48:47.828Z,14.97
2018-10-06T04:51:16.639Z,19.40
2018-10-06T04:53:45.647Z,15.83
2018-10-06T04:56:14.701Z,23.30
2018-10-06T04:58:43.855Z,18.67
2018-10-06T05:01:12.601Z,22.70
2018-10-06T05:03:41.756Z,18.00
2018-10-06T05:06:11.244Z,20.10
2018-10-06T05:08:39.983Z,34.70
2018-10-06T05:11:08.866Z,18.20
2018-10-06T05:13:37.827Z,18.43
2018-10-06T05:16:06.854Z,24.50
2018-10-06T05:18:35.909Z,20.80
2018-10-06T05:21:06.160Z,14.57
2018-10-06T05:23:35.311Z,20.53
2018-10-06T05:26:04.054Z,17.57
2018-10-06T05:28:33.073Z,20.30
2018-10-06T05:31:02.038Z,24.97
2018-10-06T05:33:31.318Z,27.93
2018-10-06T05:36:00.231Z,22.70
2018-10-06T05:38:29.231Z,21.83
2018-10-06T05:40:58.158Z,23.60
2018-10-06T05:43:27.075Z,24.57
2018-10-06T05:45:55.931Z,20.17
2018-10-06T05:48:25.413Z,20.93
2018-10-06T05:50:54.266Z,15.90
2018-10-06T05:53:23.414Z,21.13
2018-10-06T05:55:52.399Z,17.50
2018-10-06T05:58:21.216Z,30.53
2018-10-06T06:00:50.285Z,26.50
2018-10-06T06:03:19.486Z,22.73
2018-10-06T06:05:48.272Z,25.53
2018-10-06T06:08:17.169Z,24.63
2018-10-06T06:10:46.026Z,23.63
2018-10-06T06:13:15.649Z,25.73
2018-10-06T06:15:44.852Z,29.80
2018-10-06T06:18:13.594Z,23.23
2018-10-06T06:20:42.589Z,30.33
2018-10-06T06:23:11.473Z,32.67
2018-10-06T06:25:40.335Z,36.87
2018-10-06T06:28:09.432Z,29.90
2018-10-06T06:30:38.312Z,38.73
2018-10-06T06:33:07.317Z,45.80
2018-10-06T06:35:36.990Z,32.90
2018-10-06T06:38:06.185Z,38.90
2018-10-06T06:40:35.564Z,33.07
2018-10-06T06:43:04.564Z,34.00
2018-10-06T06:45:33.398Z,45.50
2018-10-06T06:48:02.184Z,37.07
2018-10-06T06:50:31.273Z,40.70
2018-10-06T06:53:00.077Z,34.60
2018-10-06T06:55:28.874Z,40.20
2018-10-06T06:57:58.298Z,48.10
2018-10-06T07:00:27.126Z,43.83
2018-10-06T07:02:55.905Z,42.03
2018-10-06T07:05:25.638Z,44.73
2018-10-06T07:07:56.009Z,51.43
2018-10-06T07:10:25.620Z,48.93
2018-10-06T07:12:54.611Z,45.83
2018-10-06T07:15:23.682Z,58.33
2018-10-06T07:17:52.562Z,47.40
2018-10-06T07:20:21.440Z,53.63
2018-10-06T07:22:50.606Z,47.20
2018-10-06T07:25:20.543Z,44.50
2018-10-06T07:27:49.512Z,57.73
2018-10-06T07:30:18.705Z,46.57
2018-10-06T07:32:48.469Z,49.97
2018-10-06T07:35:17.617Z,49.07
2018-10-06T07:37:46.821Z,55.87
2018-10-06T07:40:15.707Z,54.53
2018-10-06T07:42:44.502Z,54.20
2018-10-06T07:45:13.864Z,42.20
2018-10-06T07:47:43.446Z,53.93
2018-10-06T07:50:13.128Z,42.97
2018-10-06T07:52:42.002Z,54.63
2018-10-06T07:55:12.510Z,57.33
2018-10-06T07:57:42.059Z,53.47
2018-10-06T08:00:10.965Z,44.73
2018-10-06T08:02:40.942Z,48.67
2018-10-06T08:05:10.117Z,55.63
2018-10-06T08:07:39.975Z,56.87
2018-10-06T08:10:10.034Z,49.63
2018-10-06T08:12:39.249Z,50.47
2018-10-06T08:15:08.180Z,44.13
2018-10-06T08:17:38.129Z,41.10
2018-10-06T08:20:06.885Z,41.10
2018-10-06T08:22:35.948Z,42.50
2018-10-06T08:25:05.656Z,40.90
2018-10-06T08:27:34.518Z,40.57
2018-10-06T08:30:03.381Z,41.63
2018-10-06T08:32:35.907Z,40.00
2018-10-06T08:35:04.783Z,41.50
2018-10-06T08:37:33.904Z,41.80
2018-10-06T08:40:03.098Z,47.13
2018-10-06T08:42:32.188Z,33.73
2018-10-06T08:45:01.019Z,38.63
2018-10-06T08:47:30.002Z,43.43
2018-10-06T08:49:58.824Z,38.17
2018-10-06T08:52:28.030Z,39.00
2018-10-06T08:54:56.836Z,41.63
2018-10-06T08:57:25.684Z,44.43
2018-10-06T08:59:55.060Z,46.53
2018-10-06T09:02:24.120Z,35.53
2018-10-06T09:04:53.031Z,31.30
2018-10-06T09:07:21.875Z,30.30
2018-10-06T09:09:50.764Z,36.50
2018-10-06T09:12:19.900Z,32.87
2018-10-06T09:14:49.330Z,27.77
2018-10-06T09:17:18.522Z,38.83
2018-10-06T09:19:47.339Z,29.57
2018-10-06T09:22:16.229Z,29.10
2018-10-06T09:24:45.404Z,25.27
2018-10-06T09:27:14.235Z,38.93
2018-10-06T09:29:43.380Z,29.77
2018-10-06T09:32:12.276Z,30.03
2018-10-06T09:34:41.117Z,34.63
2018-10-06T09:37:10.714Z,31.00
2018-10-06T09:39:39.597Z,28.27
2018-10-06T09:42:09.120Z,32.00
2018-10-06T09:44:38.227Z,27.77
2018-10-06T09:47:07.158Z,35.40
2018-10-06T09:49:35.920Z,27.90
2018-10-06T09:52:04.766Z,26.30
2018-10-06T09:54:33.947Z,31.83
2018-10-06T09:57:02.722Z,32.20
2018-10-06T09:59:32.022Z,25.17
2018-10-06T10:03:07.928Z,29.40
2018-10-06T10:05:41.977Z,24.10
2018-10-06T10:08:11.427Z,25.93
2018-10-06T10:10:40.638Z,28.43
2018-10-06T10:13:09.787Z,17.60
2018-10-06T10:15:38.623Z,31.30
2018-10-06T10:18:07.509Z,21.27
2018-10-06T10:20:36.606Z,21.97
2018-10-06T10:23:05.478Z,23.57
2018-10-06T10:25:34.139Z,21.17
2018-10-06T10:28:03.522Z,24.10
2018-10-06T10:30:32.682Z,22.13
2018-10-06T10:33:01.473Z,14.10
2018-10-06T10:35:30.250Z,18.13
2018-10-06T10:37:59.020Z,18.60
2018-10-06T10:40:28.102Z,20.47
2018-10-06T10:42:57.617Z,18.03
2018-10-06T10:45:26.379Z,25.73
2018-10-06T10:47:55.518Z,12.77
2018-10-06T10:50:24.577Z,21.93
2018-10-06T10:52:53.785Z,17.60
2018-10-06T10:55:22.885Z,13.10
2018-10-06T10:57:52.058Z,11.93
2018-10-06T11:00:21.087Z,18.63
2018-10-06T11:02:49.881Z,18.90
2018-10-06T11:05:18.955Z,10.83
2018-10-06T11:07:48.028Z,12.47
2018-10-06T11:10:17.207Z,12.30
2018-10-06T11:12:45.967Z,12.40
2018-10-06T11:15:14.761Z,10.03
2018-10-06T11:17:43.665Z,10.90
2018-10-06T11:20:12.655Z,13.43
2018-10-06T11:22:41.445Z,11.23
2018-10-06T11:25:10.548Z,12.07
2018-10-06T11:27:39.600Z,17.93
2018-10-06T11:30:08.805Z,11.83
2018-10-06T11:32:37.660Z,15.30
2018-10-06T11:35:06.720Z,9.47
2018-10-06T11:37:36.108Z,12.20
2018-10-06T11:40:05.221Z,10.70
2018-10-06T11:42:34.059Z,6.00
2018-10-06T11:45:03.111Z,7.60
2018-10-06T11:47:31.955Z,9.67
2018-10-06T11:50:01.229Z,12.23
2018-10-06T11:52:29.923Z,10.00
2018-10-06T11:54:58.795Z,10.13
2018-10-06T11:57:28.303Z,12.80
2018-10-06T11:59:57.362Z,6.87
2018-10-06T12:02:26.197Z,8.07
2018-10-06T12:04:55.400Z,7.03
2018-10-06T12:07:24.418Z,6.70
2018-10-06T12:09:53.520Z,10.10
2018-10-06T12:12:22.742Z,6.17
2018-10-06T12:14:51.976Z,10.23
2018-10-06T12:17:20.820Z,7.93
2018-10-06T12:19:49.947Z,17.50
2018-10-06T12:22:18.757Z,8.93
2018-10-06T12:24:47.940Z,12.30
2018-10-06T12:27:17.108Z,9.33
2018-10-06T12:29:46.091Z,7.83
2018-10-06T12:32:15.221Z,9.50
2018-10-06T12:34:44.279Z,11.40
2018-10-06T12:37:13.127Z,12.50
2018-10-06T12:39:41.959Z,20.03
2018-10-06T12:42:11.381Z,10.17
2018-10-06T12:44:40.164Z,11.23
2018-10-06T12:47:09.039Z,6.83
2018-10-06T12:49:37.843Z,7.40
2018-10-06T12:52:07.094Z,5.63
2018-10-06T12:54:36.255Z,5.40
2018-10-06T12:57:05.268Z,16.03
2018-10-06T12:59:34.022Z,10.93
2018-10-06T13:02:03.134Z,7.23
2018-10-06T13:04:31.879Z,9.00
2018-10-06T13:07:00.700Z,9.93
2018-10-06T13:09:32.484Z,13.10
2018-10-06T13:12:01.291Z,8.67
2018-10-06T13:14:30.058Z,6.60
2018-10-06T13:16:58.883Z,9.53
2018-10-06T13:19:28.453Z,8.10
2018-10-06T13:21:57.455Z,8.80
2018-10-06T13:24:26.249Z,5.80
2018-10-06T13:26:55.403Z,9.60
2018-10-06T13:29:24.617Z,3.50
2018-10-06T13:31:53.454Z,3.93
2018-10-06T13:34:22.237Z,8.30
2018-10-06T13:36:51.425Z,5.53
2018-10-06T13:39:20.146Z,5.77
2018-10-06T13:41:49.258Z,3.80
2018-10-06T13:44:18.332Z,8.20
2018-10-06T13:46:47.153Z,9.30
2018-10-06T13:49:16.309Z,5.83
2018-10-06T13:51:45.426Z,7.47
2018-10-06T13:54:14.326Z,6.80
2018-10-06T13:56:43.654Z,7.93
2018-10-06T13:59:12.407Z,6.53
2018-10-06T14:01:41.530Z,7.90
2018-10-06T14:04:10.250Z,7.67
2018-10-06T14:06:39.156Z,7.17
2018-10-06T14:09:08.894Z,6.93
2018-10-06T14:11:38.061Z,5.70
2018-10-06T14:14:06.970Z,6.00
2018-10-06T14:16:36.137Z,5.20
2018-10-06T14:19:05.293Z,8.20
2018-10-06T14:21:34.127Z,7.93
2018-10-06T14:24:03.153Z,4.30
2018-10-06T14:26:32.075Z,9.97
2018-10-06T14:29:01.423Z,3.90
2018-10-06T14:31:30.233Z,6.70
2018-10-06T14:34:05.702Z,5.00
2018-10-06T14:36:34.685Z,6.77
2018-10-06T14:39:04.166Z,5.60
2018-10-06T14:41:33.057Z,7.87
2018-10-06T14:44:01.853Z,7.83
2018-10-06T14:46:30.846Z,10.27
2018-10-06T14:49:00.079Z,8.03
2018-10-06T14:51:29.119Z,4.93
2018-10-06T14:53:57.883Z,7.03
2018-10-06T14:56:26.899Z,9.23
2018-10-06T14:58:56.552Z,8.57
2018-10-06T15:01:25.653Z,5.27
2018-10-06T15:03:54.454Z,9.07
2018-10-06T15:06:23.228Z,8.63
2018-10-06T15:08:52.045Z,9.20
2018-10-06T15:11:20.850Z,11.53
2018-10-06T15:13:49.613Z,5.73
2018-10-06T15:16:18.743Z,13.60
2018-10-06T15:18:47.875Z,8.93
2018-10-06T15:21:17.494Z,9.37
2018-10-06T15:23:46.363Z,6.77
2018-10-06T15:26:15.499Z,9.57
2018-10-06T15:28:44.612Z,10.10
2018-10-06T15:31:13.724Z,11.70
2018-10-06T15:33:42.600Z,9.63
2018-10-06T15:36:11.451Z,10.30
2018-10-06T15:38:41.023Z,8.00
2018-10-06T15:41:10.736Z,8.20
2018-10-06T15:43:40.487Z,9.50
2018-10-06T15:46:10.827Z,7.13
2018-10-06T15:48:39.702Z,8.97
2018-10-06T15:51:09.498Z,8.93
2018-10-06T15:53:38.338Z,20.60
2018-10-06T15:56:07.139Z,16.97
2018-10-06T15:58:38.360Z,11.00
2018-10-06T16:01:07.879Z,16.37
2018-10-06T16:03:36.911Z,12.40
2018-10-06T16:06:05.694Z,19.23
2018-10-06T16:08:34.544Z,11.37
2018-10-06T16:11:03.347Z,15.57
2018-10-06T16:13:32.087Z,19.70
2018-10-06T16:16:00.910Z,11.23
2018-10-06T16:18:29.683Z,13.00
2018-10-06T16:20:58.681Z,20.83
2018-10-06T16:23:27.825Z,19.60
2018-10-06T16:25:56.656Z,17.30
2018-10-06T16:28:25.431Z,22.47
2018-10-06T16:30:54.556Z,20.23
2018-10-06T16:33:23.649Z,32.80
2018-10-06T16:35:52.723Z,24.80
2018-10-06T16:38:22.966Z,24.57
2018-10-06T16:40:51.767Z,28.80
2018-10-06T16:43:20.547Z,25.20
2018-10-06T16:45:49.890Z,31.67
2018-10-06T16:48:19.381Z,29.37
2018-10-06T16:50:48.541Z,30.73
2018-10-06T16:53:17.674Z,28.30
2018-10-06T16:55:46.491Z,29.63
2018-10-06T16:58:15.261Z,25.53
2018-10-06T17:00:50.454Z,25.13
2018-10-06T17:03:19.676Z,26.43
2018-10-06T17:05:48.532Z,24.97
2018-10-06T17:08:17.339Z,36.30
2018-10-06T17:10:46.190Z,23.37
2018-10-06T17:13:15.009Z,26.73
2018-10-06T17:15:44.065Z,27.07
2018-10-06T17:18:12.859Z,38.57
2018-10-06T17:20:41.703Z,25.60
2018-10-06T17:23:10.830Z,24.00
2018-10-06T17:25:39.622Z,30.27
2018-10-06T17:28:08.846Z,34.83
2018-10-06T17:30:38.522Z,30.53
2018-10-06T17:33:07.879Z,34.73
2018-10-06T17:35:37.075Z,24.93
2018-10-06T17:38:05.980Z,29.80
2018-10-06T17:40:35.023Z,27.57
2018-10-06T17:43:03.898Z,25.93
2018-10-06T17:45:33.120Z,38.37
2018-10-06T17:48:02.126Z,31.90
2018-10-06T17:50:31.823Z,31.63
2018-10-06T17:53:01.099Z,36.13
2018-10-06T17:55:30.271Z,30.40
2018-10-06T17:57:59.872Z,30.93
2018-10-06T18:00:28.737Z,35.40
2018-10-06T18:02:58.202Z,45.20
2018-10-06T18:05:27.198Z,32.10
2018-10-06T18:07:56.583Z,32.57
2018-10-06T18:10:25.369Z,33.23
2018-10-06T18:12:54.148Z,30.90
2018-10-06T18:15:24.871Z,31.70
2018-10-06T18:17:53.843Z,28.90
2018-10-06T18:20:22.726Z,36.60
2018-10-06T18:22:52.881Z,34.70
2018-10-06T18:25:22.127Z,50.00
2018-10-06T18:27:51.048Z,40.33
2018-10-06T18:30:20.740Z,40.50
2018-10-06T18:32:50.035Z,48.83
2018-10-06T18:35:20.083Z,36.10
2018-10-06T18:37:49.013Z,39.03
2018-10-06T18:40:18.274Z,40.57
2018-10-06T18:42:47.273Z,36.50
2018-10-06T18:45:16.467Z,39.37
2018-10-06T18:47:46.136Z,44.47
2018-10-06T18:50:15.031Z,44.27
2018-10-06T18:52:45.313Z,47.07
2018-10-06T18:55:14.509Z,46.17
2018-10-06T18:57:44.434Z,43.23
2018-10-06T19:00:13.344Z,54.80
2018-10-06T19:02:42.277Z,58.07
2018-10-06T19:05:11.855Z,60.30
2018-10-06T19:07:41.800Z,56.37
2018-10-06T19:10:11.826Z,69.07
2018-10-06T19:12:40.960Z,58.93
2018-10-06T19:15:10.198Z,59.90
2018-10-06T19:17:39.371Z,59.47
2018-10-06T19:20:08.238Z,63.03
2018-10-06T19:22:37.215Z,71.43
2018-10-06T19:25:06.567Z,80.93
2018-10-06T19:27:35.476Z,68.97
2018-10-06T19:30:04.399Z,82.70
2018-10-06T19:32:33.222Z,88.67
2018-10-06T19:35:02.420Z,95.30
2018-10-06T19:37:31.453Z,87.20
2018-10-06T19:40:00.302Z,82.10
2018-10-06T19:42:29.067Z,90.60
2018-10-06T19:44:58.231Z,98.63
2018-10-06T19:47:27.065Z,88.40
2018-10-06T19:49:56.510Z,111.33
2018-10-06T19:52:25.313Z,103.90
2018-10-06T19:54:56.203Z,101.37
2018-10-06T19:57:26.014Z,116.33
2018-10-06T19:59:55.283Z,105.30
2018-10-06T20:02:24.978Z,102.30
2018-10-06T20:04:53.818Z,114.13
2018-10-06T20:07:22.982Z,114.33
2018-10-06T20:09:52.472Z,110.17
2018-10-06T20:12:23.231Z,118.77
2018-10-06T20:14:53.295Z,118.27
2018-10-06T20:17:23.274Z,114.43
2018-10-06T20:19:52.241Z,134.23
2018-10-06T20:22:22.212Z,129.10
2018-10-06T20:24:51.076Z,135.23
2018-10-06T20:27:20.129Z,141.00
2018-10-06T20:29:49.322Z,140.43
2018-10-06T20:32:18.491Z,144.87
2018-10-06T20:34:47.509Z,139.20
2018-10-06T20:37:16.659Z,144.97
2018-10-06T20:39:46.096Z,159.80
2018-10-06T20:42:16.088Z,137.53
2018-10-06T20:44:45.012Z,151.70
2018-10-06T20:47:13.791Z,154.10
2018-10-06T20:49:42.577Z,144.70
2018-10-06T20:52:11.390Z,140.13
2018-10-06T20:54:40.569Z,166.83
2018-10-06T20:57:09.456Z,157.90
2018-10-06T20:59:38.532Z,146.07
2018-10-06T21:02:07.766Z,168.83
2018-10-06T21:04:36.765Z,153.60
2018-10-06T21:07:06.023Z,146.37
2018-10-06T21:09:35.420Z,155.87
2018-10-06T21:12:04.390Z,173.77
2018-10-06T21:14:33.729Z,152.70
2018-10-06T21:17:02.914Z,159.47
2018-10-06T21:19:32.030Z,180.57
2018-10-06T21:22:01.656Z,176.27
2018-10-06T21:24:30.575Z,165.03
2018-10-06T21:27:00.917Z,163.67
2018-10-06T21:29:30.176Z,161.60
2018-10-06T21:31:59.112Z,160.03
2018-10-06T21:34:28.795Z,158.83
2018-10-06T21:36:57.988Z,174.93
2018-10-06T21:39:27.094Z,174.60
2018-10-06T21:41:55.863Z,164.67
2018-10-06T21:44:24.702Z,164.33
2018-10-06T21:46:53.591Z,163.53
2018-10-06T21:49:22.758Z,157.73
2018-10-06T21:51:52.661Z,160.10
2018-10-06T21:54:22.848Z,165.53
2018-10-06T21:56:52.423Z,144.13
2018-10-06T21:59:21.277Z,154.57
2018-10-06T22:01:50.122Z,137.87
2018-10-06T22:04:19.236Z,132.30
2018-10-06T22:06:48.297Z,134.40
2018-10-06T22:09:18.451Z,129.43
2018-10-06T22:11:47.523Z,119.57
2018-10-06T22:14:16.877Z,108.83
2018-10-06T22:16:45.872Z,62.37
2018-10-06T22:19:14.777Z,82.77
2018-10-06T22:21:43.569Z,72.00
2018-10-06T22:24:12.639Z,74.23
2018-10-06T22:26:41.870Z,63.43
2018-10-06T22:29:10.755Z,37.93
2018-10-06T22:31:40.242Z,58.53
2018-10-06T22:34:09.318Z,36.53
2018-10-06T22:36:38.673Z,67.87
2018-10-06T22:39:08.819Z,42.97
2018-10-06T22:41:37.993Z,30.60
2018-10-06T22:44:07.208Z,31.17
2018-10-06T22:46:36.110Z,42.83
2018-10-06T22:49:05.167Z,37.03
2018-10-06T22:51:34.312Z,36.13
2018-10-06T22:54:03.097Z,31.33
2018-10-06T22:56:31.950Z,36.97
2018-10-06T22:59:00.770Z,29.83
2018-10-06T23:01:31.316Z,21.60
2018-10-06T23:04:00.188Z,27.17
2018-10-06T23:06:29.104Z,31.27
2018-10-06T23:08:58.161Z,32.53
2018-10-06T23:11:26.970Z,32.40
2018-10-06T23:13:55.853Z,20.70
2018-10-06T23:16:24.712Z,18.83
2018-10-06T23:18:53.502Z,26.57
2018-10-06T23:21:22.654Z,17.03
2018-10-06T23:23:51.531Z,12.07
2018-10-06T23:26:20.629Z,14.50
2018-10-06T23:28:49.743Z,20.23
2018-10-06T23:31:18.766Z,18.90
2018-10-06T23:33:47.624Z,15.10
2018-10-06T23:36:16.416Z,20.10
2018-10-06T23:38:45.199Z,19.27
2018-10-06T23:41:14.276Z,9.37
2018-10-06T23:43:43.457Z,11.63
2018-10-06T23:46:12.444Z,12.40
2018-10-06T23:48:41.332Z,14.13
2018-10-06T23:51:10.226Z,10.07
2018-10-06T23:53:39.552Z,9.97
2018-10-06T23:56:09.006Z,19.93
2018-10-06T23:58:38.081Z,7.37
